sensor_id;sensor_type;location;lat;lon;timestamp;P1;durP1;ratioP1;P2;durP2;ratioP2
23988;SDS011;74667;52.136;5.592;2024-01-15T00:00:44;8.30;;;1.50;;
23988;SDS011;74667;52.136;5.592;2024-01-15T00:03:09;5.20;;;1.85;;
23988;SDS011;74667;52.136;5.592;2024-01-15T00:05:35;9.80;;;1.80;;
23988;SDS011;74667;52.136;5.592;2024-01-15T00:08:03;13.50;;;2.25;;
23988;SDS011;74667;52.136;5.592;2024-01-15T00:10:28;9.63;;;1.98;;
23988;SDS011;74667;52.136;5.592;2024-01-15T00:12:53;11.48;;;2.20;;
23988;SDS011;74667;52.136;5.592;2024-01-15T00:15:18;12.93;;;2.22;;
23988;SDS011;74667;52.136;5.592;2024-01-15T00:17:44;12.15;;;2.42;;
23988;SDS011;74667;52.136;5.592;2024-01-15T00:20:09;8.77;;;1.52;;
23988;SDS011;74667;52.136;5.592;2024-01-15T00:22:35;9.23;;;2.33;;
23988;SDS011;74667;52.136;5.592;2024-01-15T00:25:00;14.93;;;2.53;;
23988;SDS011;74667;52.136;5.592;2024-01-15T00:27:26;10.95;;;2.33;;
23988;SDS011;74667;52.136;5.592;2024-01-15T00:29:51;11.35;;;2.42;;
23988;SDS011;74667;52.136;5.592;2024-01-15T00:32:17;13.27;;;2.20;;
23988;SDS011;74667;52.136;5.592;2024-01-15T00:34:42;12.63;;;2.70;;
23988;SDS011;74667;52.136;5.592;2024-01-15T00:37:07;11.98;;;2.63;;
23988;SDS011;74667;52.136;5.592;2024-01-15T00:39:33;13.02;;;2.20;;
23988;SDS011;74667;52.136;5.592;2024-01-15T00:41:58;14.20;;;2.20;;
23988;SDS011;74667;52.136;5.592;2024-01-15T00:44:23;7.85;;;1.85;;
23988;SDS011;74667;52.136;5.592;2024-01-15T00:46:48;11.98;;;2.03;;
23988;SDS011;74667;52.136;5.592;2024-01-15T00:49:13;8.45;;;1.98;;
23988;SDS011;74667;52.136;5.592;2024-01-15T00:51:39;12.10;;;2.35;;
23988;SDS011;74667;52.136;5.592;2024-01-15T00:54:04;12.13;;;2.17;;
23988;SDS011;74667;52.136;5.592;2024-01-15T00:56:29;7.10;;;1.33;;
23988;SDS011;74667;52.136;5.592;2024-01-15T00:58:55;13.50;;;2.35;;
23988;SDS011;74667;52.136;5.592;2024-01-15T01:01:20;11.82;;;2.70;;
23988;SDS011;74667;52.136;5.592;2024-01-15T01:03:45;14.30;;;1.97;;
23988;SDS011;74667;52.136;5.592;2024-01-15T01:06:10;15.70;;;1.60;;
23988;SDS011;74667;52.136;5.592;2024-01-15T01:08:35;14.03;;;2.30;;
23988;SDS011;74667;52.136;5.592;2024-01-15T01:11:00;13.23;;;2.15;;
23988;SDS011;74667;52.136;5.592;2024-01-15T01:13:26;9.75;;;1.90;;
23988;SDS011;74667;52.136;5.592;2024-01-15T01:15:51;17.37;;;1.77;;
23988;SDS011;74667;52.136;5.592;2024-01-15T01:18:16;10.63;;;2.13;;
23988;SDS011;74667;52.136;5.592;2024-01-15T01:20:41;13.80;;;1.95;;
23988;SDS011;74667;52.136;5.592;2024-01-15T01:23:06;13.45;;;2.28;;
23988;SDS011;74667;52.136;5.592;2024-01-15T01:25:32;10.93;;;2.50;;
23988;SDS011;74667;52.136;5.592;2024-01-15T01:27:57;13.70;;;2.10;;
23988;SDS011;74667;52.136;5.592;2024-01-15T01:30:22;9.82;;;2.03;;
23988;SDS011;74667;52.136;5.592;2024-01-15T01:32:47;17.70;;;1.90;;
23988;SDS011;74667;52.136;5.592;2024-01-15T01:35:12;17.03;;;2.00;;
23988;SDS011;74667;52.136;5.592;2024-01-15T01:37:37;14.70;;;2.17;;
23988;SDS011;74667;52.136;5.592;2024-01-15T01:40:03;9.70;;;1.88;;
23988;SDS011;74667;52.136;5.592;2024-01-15T01:42:28;12.88;;;1.77;;
23988;SDS011;74667;52.136;5.592;2024-01-15T01:44:53;7.50;;;1.93;;
23988;SDS011;74667;52.136;5.592;2024-01-15T01:47:18;13.73;;;1.90;;
23988;SDS011;74667;52.136;5.592;2024-01-15T01:49:44;14.75;;;1.90;;
23988;SDS011;74667;52.136;5.592;2024-01-15T01:52:09;9.13;;;2.08;;
23988;SDS011;74667;52.136;5.592;2024-01-15T01:54:35;15.38;;;1.85;;
23988;SDS011;74667;52.136;5.592;2024-01-15T01:57:00;12.60;;;1.98;;
23988;SDS011;74667;52.136;5.592;2024-01-15T01:59:27;14.50;;;2.05;;
23988;SDS011;74667;52.136;5.592;2024-01-15T02:01:52;13.82;;;2.60;;
23988;SDS011;74667;52.136;5.592;2024-01-15T02:04:18;14.20;;;2.30;;
23988;SDS011;74667;52.136;5.592;2024-01-15T02:06:44;6.25;;;2.13;;
23988;SDS011;74667;52.136;5.592;2024-01-15T02:09:09;24.13;;;2.13;;
23988;SDS011;74667;52.136;5.592;2024-01-15T02:11:35;20.58;;;2.30;;
23988;SDS011;74667;52.136;5.592;2024-01-15T02:14:00;10.68;;;2.03;;
23988;SDS011;74667;52.136;5.592;2024-01-15T02:16:25;20.08;;;2.47;;
23988;SDS011;74667;52.136;5.592;2024-01-15T02:18:51;16.05;;;2.13;;
23988;SDS011;74667;52.136;5.592;2024-01-15T02:21:16;14.63;;;2.60;;
23988;SDS011;74667;52.136;5.592;2024-01-15T02:23:41;14.80;;;2.30;;
23988;SDS011;74667;52.136;5.592;2024-01-15T02:26:06;12.23;;;2.38;;
23988;SDS011;74667;52.136;5.592;2024-01-15T02:28:33;10.93;;;3.22;;
23988;SDS011;74667;52.136;5.592;2024-01-15T02:30:58;8.82;;;1.55;;
23988;SDS011;74667;52.136;5.592;2024-01-15T02:33:24;17.70;;;2.25;;
23988;SDS011;74667;52.136;5.592;2024-01-15T02:35:49;9.80;;;2.38;;
23988;SDS011;74667;52.136;5.592;2024-01-15T02:38:17;11.50;;;2.08;;
23988;SDS011;74667;52.136;5.592;2024-01-15T02:40:43;9.30;;;1.80;;
23988;SDS011;74667;52.136;5.592;2024-01-15T02:43:09;12.40;;;1.50;;
23988;SDS011;74667;52.136;5.592;2024-01-15T02:45:34;10.60;;;1.70;;
23988;SDS011;74667;52.136;5.592;2024-01-15T02:47:59;14.05;;;1.88;;
23988;SDS011;74667;52.136;5.592;2024-01-15T02:50:24;8.53;;;1.60;;
23988;SDS011;74667;52.136;5.592;2024-01-15T02:52:49;7.17;;;1.53;;
23988;SDS011;74667;52.136;5.592;2024-01-15T02:55:15;6.00;;;1.58;;
23988;SDS011;74667;52.136;5.592;2024-01-15T02:57:40;10.68;;;1.48;;
23988;SDS011;74667;52.136;5.592;2024-01-15T03:00:05;7.40;;;1.65;;
23988;SDS011;74667;52.136;5.592;2024-01-15T03:02:32;7.35;;;1.35;;
23988;SDS011;74667;52.136;5.592;2024-01-15T03:04:57;5.00;;;0.98;;
23988;SDS011;74667;52.136;5.592;2024-01-15T03:07:22;12.55;;;1.35;;
23988;SDS011;74667;52.136;5.592;2024-01-15T03:09:47;13.98;;;1.95;;
23988;SDS011;74667;52.136;5.592;2024-01-15T03:12:13;13.00;;;1.00;;
23988;SDS011;74667;52.136;5.592;2024-01-15T03:14:38;6.82;;;1.05;;
23988;SDS011;74667;52.136;5.592;2024-01-15T03:17:03;7.57;;;1.33;;
23988;SDS011;74667;52.136;5.592;2024-01-15T03:19:28;11.07;;;1.20;;
23988;SDS011;74667;52.136;5.592;2024-01-15T03:21:54;9.43;;;1.33;;
23988;SDS011;74667;52.136;5.592;2024-01-15T03:24:20;3.10;;;0.88;;
23988;SDS011;74667;52.136;5.592;2024-01-15T03:26:45;4.57;;;1.10;;
23988;SDS011;74667;52.136;5.592;2024-01-15T03:29:10;9.67;;;1.37;;
23988;SDS011;74667;52.136;5.592;2024-01-15T03:31:35;8.37;;;1.10;;
23988;SDS011;74667;52.136;5.592;2024-01-15T03:34:00;9.50;;;1.38;;
23988;SDS011;74667;52.136;5.592;2024-01-15T03:36:25;5.30;;;1.40;;
23988;SDS011;74667;52.136;5.592;2024-01-15T03:38:51;4.25;;;0.98;;
23988;SDS011;74667;52.136;5.592;2024-01-15T03:41:16;3.47;;;1.10;;
23988;SDS011;74667;52.136;5.592;2024-01-15T03:43:41;4.60;;;1.10;;
23988;SDS011;74667;52.136;5.592;2024-01-15T03:46:06;14.68;;;1.73;;
23988;SDS011;74667;52.136;5.592;2024-01-15T03:48:32;9.68;;;1.80;;
23988;SDS011;74667;52.136;5.592;2024-01-15T03:50:57;5.05;;;1.42;;
23988;SDS011;74667;52.136;5.592;2024-01-15T03:53:22;8.20;;;1.52;;
23988;SDS011;74667;52.136;5.592;2024-01-15T03:55:47;6.32;;;1.20;;
23988;SDS011;74667;52.136;5.592;2024-01-15T03:58:12;5.10;;;0.95;;
23988;SDS011;74667;52.136;5.592;2024-01-15T04:00:40;5.00;;;1.23;;
23988;SDS011;74667;52.136;5.592;2024-01-15T04:03:05;10.25;;;1.27;;
23988;SDS011;74667;52.136;5.592;2024-01-15T04:05:30;11.05;;;1.20;;
23988;SDS011;74667;52.136;5.592;2024-01-15T04:07:55;6.33;;;1.80;;
23988;SDS011;74667;52.136;5.592;2024-01-15T04:10:20;5.30;;;1.10;;
23988;SDS011;74667;52.136;5.592;2024-01-15T04:12:46;7.05;;;1.55;;
23988;SDS011;74667;52.136;5.592;2024-01-15T04:15:11;6.17;;;1.30;;
23988;SDS011;74667;52.136;5.592;2024-01-15T04:17:37;10.25;;;1.58;;
23988;SDS011;74667;52.136;5.592;2024-01-15T04:20:02;3.03;;;0.88;;
23988;SDS011;74667;52.136;5.592;2024-01-15T04:22:27;8.95;;;1.20;;
23988;SDS011;74667;52.136;5.592;2024-01-15T04:24:52;3.13;;;0.98;;
23988;SDS011;74667;52.136;5.592;2024-01-15T04:27:17;6.97;;;1.70;;
23988;SDS011;74667;52.136;5.592;2024-01-15T04:29:43;8.33;;;1.30;;
23988;SDS011;74667;52.136;5.592;2024-01-15T04:32:09;4.45;;;1.60;;
23988;SDS011;74667;52.136;5.592;2024-01-15T04:34:34;10.37;;;1.90;;
23988;SDS011;74667;52.136;5.592;2024-01-15T04:36:59;9.23;;;1.80;;
23988;SDS011;74667;52.136;5.592;2024-01-15T04:39:25;8.23;;;1.88;;
23988;SDS011;74667;52.136;5.592;2024-01-15T04:41:50;9.53;;;1.47;;
23988;SDS011;74667;52.136;5.592;2024-01-15T04:44:15;9.73;;;1.40;;
23988;SDS011;74667;52.136;5.592;2024-01-15T04:46:40;6.60;;;1.20;;
23988;SDS011;74667;52.136;5.592;2024-01-15T04:49:05;8.25;;;1.90;;
23988;SDS011;74667;52.136;5.592;2024-01-15T04:51:31;9.27;;;1.63;;
23988;SDS011;74667;52.136;5.592;2024-01-15T04:53:56;10.63;;;1.98;;
23988;SDS011;74667;52.136;5.592;2024-01-15T04:56:21;9.75;;;1.45;;
23988;SDS011;74667;52.136;5.592;2024-01-15T04:58:46;5.68;;;1.40;;
23988;SDS011;74667;52.136;5.592;2024-01-15T05:01:11;5.67;;;1.33;;
23988;SDS011;74667;52.136;5.592;2024-01-15T05:03:37;10.50;;;1.70;;
23988;SDS011;74667;52.136;5.592;2024-01-15T05:06:02;9.52;;;1.83;;
23988;SDS011;74667;52.136;5.592;2024-01-15T05:08:27;10.48;;;1.50;;
23988;SDS011;74667;52.136;5.592;2024-01-15T05:10:53;10.67;;;2.87;;
23988;SDS011;74667;52.136;5.592;2024-01-15T05:13:18;7.25;;;1.40;;
23988;SDS011;74667;52.136;5.592;2024-01-15T05:15:43;10.20;;;2.30;;
23988;SDS011;74667;52.136;5.592;2024-01-15T05:18:08;6.97;;;1.47;;
23988;SDS011;74667;52.136;5.592;2024-01-15T05:20:33;13.35;;;1.85;;
23988;SDS011;74667;52.136;5.592;2024-01-15T05:22:59;10.98;;;1.80;;
23988;SDS011;74667;52.136;5.592;2024-01-15T05:25:24;6.97;;;1.52;;
23988;SDS011;74667;52.136;5.592;2024-01-15T05:27:49;7.22;;;2.33;;
23988;SDS011;74667;52.136;5.592;2024-01-15T05:30:14;7.77;;;2.07;;
23988;SDS011;74667;52.136;5.592;2024-01-15T05:32:40;16.50;;;1.98;;
23988;SDS011;74667;52.136;5.592;2024-01-15T05:35:05;10.27;;;2.17;;
23988;SDS011;74667;52.136;5.592;2024-01-15T05:37:30;15.05;;;1.85;;
23988;SDS011;74667;52.136;5.592;2024-01-15T05:39:55;18.40;;;2.00;;
23988;SDS011;74667;52.136;5.592;2024-01-15T05:42:21;9.27;;;1.70;;
23988;SDS011;74667;52.136;5.592;2024-01-15T05:44:46;13.40;;;2.20;;
23988;SDS011;74667;52.136;5.592;2024-01-15T05:47:11;6.03;;;1.57;;
23988;SDS011;74667;52.136;5.592;2024-01-15T05:49:36;10.63;;;1.83;;
23988;SDS011;74667;52.136;5.592;2024-01-15T05:52:01;11.40;;;2.00;;
23988;SDS011;74667;52.136;5.592;2024-01-15T05:54:26;10.85;;;1.70;;
23988;SDS011;74667;52.136;5.592;2024-01-15T05:56:52;10.63;;;1.88;;
23988;SDS011;74667;52.136;5.592;2024-01-15T05:59:17;10.83;;;1.23;;
23988;SDS011;74667;52.136;5.592;2024-01-15T06:01:42;10.97;;;1.73;;
23988;SDS011;74667;52.136;5.592;2024-01-15T06:04:07;12.00;;;1.85;;
23988;SDS011;74667;52.136;5.592;2024-01-15T06:06:32;9.85;;;1.73;;
23988;SDS011;74667;52.136;5.592;2024-01-15T06:08:58;11.67;;;3.17;;
23988;SDS011;74667;52.136;5.592;2024-01-15T06:11:30;11.02;;;1.80;;
23988;SDS011;74667;52.136;5.592;2024-01-15T06:13:55;8.45;;;1.98;;
23988;SDS011;74667;52.136;5.592;2024-01-15T06:16:20;7.50;;;1.63;;
23988;SDS011;74667;52.136;5.592;2024-01-15T06:18:46;10.93;;;2.05;;
23988;SDS011;74667;52.136;5.592;2024-01-15T06:21:11;5.45;;;1.70;;
23988;SDS011;74667;52.136;5.592;2024-01-15T06:23:39;6.93;;;1.90;;
23988;SDS011;74667;52.136;5.592;2024-01-15T06:26:04;5.30;;;1.37;;
23988;SDS011;74667;52.136;5.592;2024-01-15T06:28:29;7.63;;;1.60;;
23988;SDS011;74667;52.136;5.592;2024-01-15T06:30:55;7.07;;;1.52;;
23988;SDS011;74667;52.136;5.592;2024-01-15T06:33:20;4.28;;;1.40;;
23988;SDS011;74667;52.136;5.592;2024-01-15T06:35:45;14.10;;;6.30;;
23988;SDS011;74667;52.136;5.592;2024-01-15T06:38:10;9.20;;;4.18;;
23988;SDS011;74667;52.136;5.592;2024-01-15T06:40:35;16.00;;;3.83;;
23988;SDS011;74667;52.136;5.592;2024-01-15T06:43:01;6.65;;;2.55;;
23988;SDS011;74667;52.136;5.592;2024-01-15T06:45:26;6.57;;;2.20;;
23988;SDS011;74667;52.136;5.592;2024-01-15T06:47:51;8.68;;;2.15;;
23988;SDS011;74667;52.136;5.592;2024-01-15T06:50:16;10.27;;;3.20;;
23988;SDS011;74667;52.136;5.592;2024-01-15T06:52:41;7.03;;;2.90;;
23988;SDS011;74667;52.136;5.592;2024-01-15T06:55:06;7.37;;;2.60;;
23988;SDS011;74667;52.136;5.592;2024-01-15T06:57:32;9.80;;;2.78;;
23988;SDS011;74667;52.136;5.592;2024-01-15T06:59:57;9.07;;;2.83;;
23988;SDS011;74667;52.136;5.592;2024-01-15T07:02:22;13.45;;;2.97;;
23988;SDS011;74667;52.136;5.592;2024-01-15T07:04:47;5.28;;;2.88;;
23988;SDS011;74667;52.136;5.592;2024-01-15T07:07:12;5.90;;;2.83;;
23988;SDS011;74667;52.136;5.592;2024-01-15T07:09:38;9.77;;;2.90;;
23988;SDS011;74667;52.136;5.592;2024-01-15T07:12:03;9.70;;;3.60;;
23988;SDS011;74667;52.136;5.592;2024-01-15T07:14:29;6.40;;;3.22;;
23988;SDS011;74667;52.136;5.592;2024-01-15T07:16:54;11.93;;;3.43;;
23988;SDS011;74667;52.136;5.592;2024-01-15T07:19:19;7.65;;;3.70;;
23988;SDS011;74667;52.136;5.592;2024-01-15T07:21:44;8.30;;;4.20;;
23988;SDS011;74667;52.136;5.592;2024-01-15T07:24:09;9.02;;;3.83;;
23988;SDS011;74667;52.136;5.592;2024-01-15T07:26:35;9.40;;;4.05;;
23988;SDS011;74667;52.136;5.592;2024-01-15T07:29:00;4.95;;;3.58;;
23988;SDS011;74667;52.136;5.592;2024-01-15T07:31:26;15.07;;;7.33;;
23988;SDS011;74667;52.136;5.592;2024-01-15T07:33:51;10.15;;;5.40;;
23988;SDS011;74667;52.136;5.592;2024-01-15T07:36:16;7.28;;;4.18;;
23988;SDS011;74667;52.136;5.592;2024-01-15T07:38:42;6.60;;;3.70;;
23988;SDS011;74667;52.136;5.592;2024-01-15T07:41:08;7.28;;;4.05;;
23988;SDS011;74667;52.136;5.592;2024-01-15T07:43:33;4.47;;;3.58;;
23988;SDS011;74667;52.136;5.592;2024-01-15T07:45:58;7.80;;;3.58;;
23988;SDS011;74667;52.136;5.592;2024-01-15T07:48:23;11.73;;;4.40;;
23988;SDS011;74667;52.136;5.592;2024-01-15T07:50:49;11.35;;;3.65;;
23988;SDS011;74667;52.136;5.592;2024-01-15T07:53:14;7.73;;;3.17;;
23988;SDS011;74667;52.136;5.592;2024-01-15T07:55:39;4.10;;;3.03;;
23988;SDS011;74667;52.136;5.592;2024-01-15T07:58:04;5.93;;;3.67;;
23988;SDS011;74667;52.136;5.592;2024-01-15T08:00:29;5.50;;;3.17;;
23988;SDS011;74667;52.136;5.592;2024-01-15T08:02:54;6.78;;;3.70;;
23988;SDS011;74667;52.136;5.592;2024-01-15T08:05:20;5.65;;;3.25;;
23988;SDS011;74667;52.136;5.592;2024-01-15T08:07:45;6.22;;;3.53;;
23988;SDS011;74667;52.136;5.592;2024-01-15T08:10:10;5.28;;;3.00;;
23988;SDS011;74667;52.136;5.592;2024-01-15T08:12:36;5.77;;;3.60;;
23988;SDS011;74667;52.136;5.592;2024-01-15T08:15:01;10.07;;;3.20;;
23988;SDS011;74667;52.136;5.592;2024-01-15T08:17:26;5.32;;;3.50;;
23988;SDS011;74667;52.136;5.592;2024-01-15T08:19:54;15.10;;;6.70;;
23988;SDS011;74667;52.136;5.592;2024-01-15T08:22:19;18.30;;;8.32;;
23988;SDS011;74667;52.136;5.592;2024-01-15T08:24:45;17.33;;;7.85;;
23988;SDS011;74667;52.136;5.592;2024-01-15T08:27:10;19.55;;;7.78;;
23988;SDS011;74667;52.136;5.592;2024-01-15T08:29:35;10.00;;;5.03;;
23988;SDS011;74667;52.136;5.592;2024-01-15T08:32:00;10.43;;;4.00;;
23988;SDS011;74667;52.136;5.592;2024-01-15T08:34:26;5.80;;;3.13;;
23988;SDS011;74667;52.136;5.592;2024-01-15T08:36:51;5.93;;;3.07;;
23988;SDS011;74667;52.136;5.592;2024-01-15T08:39:16;8.65;;;3.78;;
23988;SDS011;74667;52.136;5.592;2024-01-15T08:41:43;9.40;;;4.13;;
23988;SDS011;74667;52.136;5.592;2024-01-15T08:44:08;7.80;;;4.53;;
23988;SDS011;74667;52.136;5.592;2024-01-15T08:46:33;12.48;;;4.10;;
23988;SDS011;74667;52.136;5.592;2024-01-15T08:48:58;7.57;;;4.32;;
23988;SDS011;74667;52.136;5.592;2024-01-15T08:51:23;4.53;;;3.92;;
23988;SDS011;74667;52.136;5.592;2024-01-15T08:53:49;7.22;;;4.35;;
23988;SDS011;74667;52.136;5.592;2024-01-15T08:56:14;10.38;;;4.25;;
23988;SDS011;74667;52.136;5.592;2024-01-15T08:58:39;10.02;;;4.18;;
23988;SDS011;74667;52.136;5.592;2024-01-15T09:01:04;9.93;;;4.17;;
23988;SDS011;74667;52.136;5.592;2024-01-15T09:03:30;16.98;;;4.88;;
23988;SDS011;74667;52.136;5.592;2024-01-15T09:05:55;8.02;;;4.72;;
23988;SDS011;74667;52.136;5.592;2024-01-15T09:08:20;11.68;;;4.57;;
23988;SDS011;74667;52.136;5.592;2024-01-15T09:10:46;12.25;;;5.25;;
23988;SDS011;74667;52.136;5.592;2024-01-15T09:13:11;8.85;;;3.95;;
23988;SDS011;74667;52.136;5.592;2024-01-15T09:15:36;10.02;;;4.45;;
23988;SDS011;74667;52.136;5.592;2024-01-15T09:18:01;10.05;;;4.43;;
23988;SDS011;74667;52.136;5.592;2024-01-15T09:20:27;8.80;;;3.38;;
23988;SDS011;74667;52.136;5.592;2024-01-15T09:22:52;12.70;;;5.22;;
23988;SDS011;74667;52.136;5.592;2024-01-15T09:25:18;14.75;;;8.02;;
23988;SDS011;74667;52.136;5.592;2024-01-15T09:27:44;10.52;;;3.03;;
23988;SDS011;74667;52.136;5.592;2024-01-15T09:30:09;12.32;;;3.40;;
23988;SDS011;74667;52.136;5.592;2024-01-15T09:32:34;10.18;;;3.40;;
23988;SDS011;74667;52.136;5.592;2024-01-15T09:35:00;8.80;;;2.63;;
23988;SDS011;74667;52.136;5.592;2024-01-15T09:37:25;11.38;;;2.28;;
23988;SDS011;74667;52.136;5.592;2024-01-15T09:39:50;10.00;;;2.38;;
23988;SDS011;74667;52.136;5.592;2024-01-15T09:42:15;12.52;;;2.92;;
23988;SDS011;74667;52.136;5.592;2024-01-15T09:44:41;11.90;;;2.55;;
23988;SDS011;74667;52.136;5.592;2024-01-15T09:47:06;12.63;;;2.22;;
23988;SDS011;74667;52.136;5.592;2024-01-15T09:49:31;16.17;;;3.33;;
23988;SDS011;74667;52.136;5.592;2024-01-15T09:51:57;14.13;;;2.88;;
23988;SDS011;74667;52.136;5.592;2024-01-15T09:54:23;13.48;;;2.28;;
23988;SDS011;74667;52.136;5.592;2024-01-15T09:56:48;8.85;;;2.08;;
23988;SDS011;74667;52.136;5.592;2024-01-15T09:59:18;6.80;;;2.05;;
23988;SDS011;74667;52.136;5.592;2024-01-15T10:01:43;6.35;;;1.77;;
23988;SDS011;74667;52.136;5.592;2024-01-15T10:04:09;7.60;;;2.38;;
23988;SDS011;74667;52.136;5.592;2024-01-15T10:06:34;6.43;;;2.03;;
23988;SDS011;74667;52.136;5.592;2024-01-15T10:09:00;3.78;;;2.17;;
23988;SDS011;74667;52.136;5.592;2024-01-15T10:11:25;7.33;;;2.20;;
23988;SDS011;74667;52.136;5.592;2024-01-15T10:13:51;8.35;;;1.77;;
23988;SDS011;74667;52.136;5.592;2024-01-15T10:16:18;8.23;;;2.00;;
23988;SDS011;74667;52.136;5.592;2024-01-15T10:18:43;9.48;;;2.10;;
23988;SDS011;74667;52.136;5.592;2024-01-15T10:21:08;7.97;;;2.27;;
23988;SDS011;74667;52.136;5.592;2024-01-15T10:23:33;4.20;;;1.60;;
23988;SDS011;74667;52.136;5.592;2024-01-15T10:25:59;9.48;;;1.90;;
23988;SDS011;74667;52.136;5.592;2024-01-15T10:28:26;9.85;;;1.90;;
23988;SDS011;74667;52.136;5.592;2024-01-15T10:30:55;4.85;;;2.85;;
23988;SDS011;74667;52.136;5.592;2024-01-15T10:33:23;9.93;;;2.85;;
23988;SDS011;74667;52.136;5.592;2024-01-15T10:35:54;7.72;;;2.40;;
23988;SDS011;74667;52.136;5.592;2024-01-15T10:38:20;5.63;;;2.30;;
23988;SDS011;74667;52.136;5.592;2024-01-15T10:40:47;11.00;;;3.00;;
23988;SDS011;74667;52.136;5.592;2024-01-15T10:43:12;14.32;;;2.58;;
23988;SDS011;74667;52.136;5.592;2024-01-15T10:45:37;10.40;;;2.13;;
23988;SDS011;74667;52.136;5.592;2024-01-15T10:48:02;5.30;;;1.80;;
23988;SDS011;74667;52.136;5.592;2024-01-15T10:50:28;10.25;;;2.35;;
23988;SDS011;74667;52.136;5.592;2024-01-15T10:52:54;9.35;;;2.05;;
23988;SDS011;74667;52.136;5.592;2024-01-15T10:55:20;9.60;;;2.70;;
23988;SDS011;74667;52.136;5.592;2024-01-15T10:57:45;12.65;;;1.80;;
23988;SDS011;74667;52.136;5.592;2024-01-15T11:00:13;6.97;;;2.70;;
23988;SDS011;74667;52.136;5.592;2024-01-15T11:02:39;5.47;;;1.70;;
23988;SDS011;74667;52.136;5.592;2024-01-15T11:05:05;10.35;;;2.40;;
23988;SDS011;74667;52.136;5.592;2024-01-15T11:07:30;8.55;;;2.25;;
23988;SDS011;74667;52.136;5.592;2024-01-15T11:09:55;13.85;;;2.40;;
23988;SDS011;74667;52.136;5.592;2024-01-15T11:12:22;7.65;;;2.28;;
23988;SDS011;74667;52.136;5.592;2024-01-15T11:14:48;7.67;;;2.47;;
23988;SDS011;74667;52.136;5.592;2024-01-15T11:17:14;9.38;;;1.98;;
23988;SDS011;74667;52.136;5.592;2024-01-15T11:19:43;9.48;;;2.50;;
23988;SDS011;74667;52.136;5.592;2024-01-15T11:22:08;7.20;;;2.25;;
23988;SDS011;74667;52.136;5.592;2024-01-15T11:24:38;13.63;;;3.05;;
23988;SDS011;74667;52.136;5.592;2024-01-15T11:27:03;9.73;;;2.22;;
23988;SDS011;74667;52.136;5.592;2024-01-15T11:29:30;8.52;;;1.77;;
23988;SDS011;74667;52.136;5.592;2024-01-15T11:31:57;12.95;;;2.33;;
23988;SDS011;74667;52.136;5.592;2024-01-15T11:37:08;8.23;;;1.88;;
23988;SDS011;74667;52.136;5.592;2024-01-15T11:41:59;10.93;;;2.83;;
23988;SDS011;74667;52.136;5.592;2024-01-15T11:44:25;9.70;;;1.92;;
23988;SDS011;74667;52.136;5.592;2024-01-15T11:52:08;6.80;;;2.13;;
23988;SDS011;74667;52.136;5.592;2024-01-15T11:54:36;12.43;;;2.30;;
23988;SDS011;74667;52.136;5.592;2024-01-15T11:57:04;7.13;;;3.13;;
23988;SDS011;74667;52.136;5.592;2024-01-15T11:59:33;10.15;;;3.22;;
23988;SDS011;74667;52.136;5.592;2024-01-15T12:01:58;3.35;;;1.45;;
23988;SDS011;74667;52.136;5.592;2024-01-15T12:04:23;5.03;;;1.33;;
23988;SDS011;74667;52.136;5.592;2024-01-15T12:06:48;2.92;;;1.10;;
23988;SDS011;74667;52.136;5.592;2024-01-15T12:09:14;1.75;;;0.98;;
23988;SDS011;74667;52.136;5.592;2024-01-15T12:11:39;6.00;;;1.40;;
23988;SDS011;74667;52.136;5.592;2024-01-15T12:14:08;8.00;;;2.83;;
23988;SDS011;74667;52.136;5.592;2024-01-15T12:16:33;4.55;;;1.85;;
23988;SDS011;74667;52.136;5.592;2024-01-15T12:18:59;4.22;;;1.58;;
23988;SDS011;74667;52.136;5.592;2024-01-15T12:21:26;4.93;;;1.45;;
23988;SDS011;74667;52.136;5.592;2024-01-15T12:23:51;7.20;;;2.65;;
23988;SDS011;74667;52.136;5.592;2024-01-15T12:26:17;13.73;;;5.70;;
23988;SDS011;74667;52.136;5.592;2024-01-15T12:28:42;19.50;;;9.70;;
23988;SDS011;74667;52.136;5.592;2024-01-15T12:31:07;9.50;;;4.55;;
23988;SDS011;74667;52.136;5.592;2024-01-15T12:33:33;5.55;;;3.22;;
23988;SDS011;74667;52.136;5.592;2024-01-15T12:35:58;6.70;;;1.80;;
23988;SDS011;74667;52.136;5.592;2024-01-15T12:38:23;4.88;;;1.30;;
23988;SDS011;74667;52.136;5.592;2024-01-15T12:40:48;5.17;;;1.47;;
23988;SDS011;74667;52.136;5.592;2024-01-15T12:43:14;6.72;;;1.88;;
23988;SDS011;74667;52.136;5.592;2024-01-15T12:45:39;3.92;;;1.95;;
23988;SDS011;74667;52.136;5.592;2024-01-15T12:48:05;12.88;;;1.70;;
23988;SDS011;74667;52.136;5.592;2024-01-15T12:50:30;13.25;;;2.67;;
23988;SDS011;74667;52.136;5.592;2024-01-15T12:52:58;8.85;;;1.70;;
23988;SDS011;74667;52.136;5.592;2024-01-15T12:55:24;12.07;;;1.52;;
23988;SDS011;74667;52.136;5.592;2024-01-15T12:57:49;8.98;;;1.75;;
23988;SDS011;74667;52.136;5.592;2024-01-15T13:00:17;4.80;;;1.60;;
23988;SDS011;74667;52.136;5.592;2024-01-15T13:02:42;4.07;;;1.50;;
23988;SDS011;74667;52.136;5.592;2024-01-15T13:05:08;12.02;;;2.08;;
23988;SDS011;74667;52.136;5.592;2024-01-15T13:07:33;9.38;;;1.80;;
23988;SDS011;74667;52.136;5.592;2024-01-15T13:09:59;7.38;;;1.40;;
23988;SDS011;74667;52.136;5.592;2024-01-15T13:12:24;5.10;;;1.52;;
23988;SDS011;74667;52.136;5.592;2024-01-15T13:14:49;7.43;;;1.55;;
23988;SDS011;74667;52.136;5.592;2024-01-15T13:17:14;9.30;;;2.30;;
23988;SDS011;74667;52.136;5.592;2024-01-15T13:19:40;12.75;;;2.20;;
23988;SDS011;74667;52.136;5.592;2024-01-15T13:22:05;11.95;;;2.20;;
23988;SDS011;74667;52.136;5.592;2024-01-15T13:24:32;8.88;;;1.40;;
23988;SDS011;74667;52.136;5.592;2024-01-15T13:26:57;10.65;;;1.67;;
23988;SDS011;74667;52.136;5.592;2024-01-15T13:29:22;10.70;;;1.50;;
23988;SDS011;74667;52.136;5.592;2024-01-15T13:31:48;4.38;;;1.52;;
23988;SDS011;74667;52.136;5.592;2024-01-15T13:34:13;13.77;;;1.98;;
23988;SDS011;74667;52.136;5.592;2024-01-15T13:36:38;7.50;;;1.75;;
23988;SDS011;74667;52.136;5.592;2024-01-15T13:39:04;11.57;;;1.73;;
23988;SDS011;74667;52.136;5.592;2024-01-15T13:41:33;9.43;;;1.85;;
23988;SDS011;74667;52.136;5.592;2024-01-15T13:43:58;8.90;;;1.90;;
23988;SDS011;74667;52.136;5.592;2024-01-15T13:46:25;4.78;;;1.50;;
23988;SDS011;74667;52.136;5.592;2024-01-15T13:48:53;7.70;;;2.05;;
23988;SDS011;74667;52.136;5.592;2024-01-15T13:51:18;7.20;;;1.55;;
23988;SDS011;74667;52.136;5.592;2024-01-15T13:53:44;12.70;;;1.75;;
23988;SDS011;74667;52.136;5.592;2024-01-15T13:56:09;9.52;;;2.45;;
23988;SDS011;74667;52.136;5.592;2024-01-15T13:58:35;7.95;;;1.67;;
23988;SDS011;74667;52.136;5.592;2024-01-15T14:01:01;6.07;;;1.33;;
23988;SDS011;74667;52.136;5.592;2024-01-15T14:03:28;8.20;;;1.88;;
23988;SDS011;74667;52.136;5.592;2024-01-15T14:05:53;8.70;;;1.73;;
23988;SDS011;74667;52.136;5.592;2024-01-15T14:08:18;13.48;;;2.53;;
23988;SDS011;74667;52.136;5.592;2024-01-15T14:10:44;5.40;;;1.43;;
23988;SDS011;74667;52.136;5.592;2024-01-15T14:13:09;8.02;;;1.95;;
23988;SDS011;74667;52.136;5.592;2024-01-15T14:15:35;6.67;;;2.40;;
23988;SDS011;74667;52.136;5.592;2024-01-15T14:18:00;8.13;;;2.10;;
23988;SDS011;74667;52.136;5.592;2024-01-15T14:20:26;9.73;;;2.15;;
23988;SDS011;74667;52.136;5.592;2024-01-15T14:22:51;8.68;;;1.67;;
23988;SDS011;74667;52.136;5.592;2024-01-15T14:25:16;8.23;;;2.30;;
23988;SDS011;74667;52.136;5.592;2024-01-15T14:27:41;9.93;;;2.15;;
23988;SDS011;74667;52.136;5.592;2024-01-15T14:30:07;9.10;;;2.23;;
23988;SDS011;74667;52.136;5.592;2024-01-15T14:32:33;8.35;;;2.28;;
23988;SDS011;74667;52.136;5.592;2024-01-15T14:34:58;11.80;;;3.10;;
23988;SDS011;74667;52.136;5.592;2024-01-15T14:37:24;11.45;;;2.47;;
23988;SDS011;74667;52.136;5.592;2024-01-15T14:39:49;15.50;;;2.50;;
23988;SDS011;74667;52.136;5.592;2024-01-15T14:42:14;7.80;;;2.53;;